WZZ86BS LWSK-LMML
Flight info
| Callsign | WZZ86BS |
|---|---|
| Flight time | 1h 18m |
| Altitude | 35000 |
| Route | GOSTI DCT DOBAR DCT UNDER DCT GOKEL DCT ABAKO DCT LORED/N0434F300 P624 GZO |
| Aircraft | A321/M-SDE3FGHIRWY/LB1 |
Departure
| Time | 2026-04-24 13:05 |
|---|---|
| Airport | Skopje International Airport (LWSK) |
Arrival
| Time | 2026-04-24 14:24 |
|---|---|
| Airport | Malta International Airport (LMML) |
| Time | Latitude | Longitude | Altitude | Speed | Heading |
|---|---|---|---|---|---|
| 2026-04-24 12:39 | 41.95736 | 21.62691 | 806 ft | 0 kts | 75° |
| 2026-04-24 12:56 | 41.95736 | 21.62690 | 788 ft | 1 kts | 75° |
| 2026-04-24 12:56 | 41.95731 | 21.62665 | 798 ft | 3 kts | 81° |
| 2026-04-24 12:56 | 41.95729 | 21.62638 | 787 ft | 3 kts | 88° |
| 2026-04-24 12:57 | 41.95729 | 21.62611 | 787 ft | 3 kts | 97° |
| 2026-04-24 12:57 | 41.95733 | 21.62585 | 787 ft | 3 kts | 114° |
| 2026-04-24 12:57 | 41.95742 | 21.62564 | 787 ft | 3 kts | 146° |
| 2026-04-24 12:57 | 41.95750 | 21.62558 | 787 ft | 0 kts | 165° |
| 2026-04-24 13:00 | 41.95749 | 21.62558 | 787 ft | 1 kts | 165° |
| 2026-04-24 13:00 | 41.95720 | 21.62568 | 787 ft | 7 kts | 166° |
| 2026-04-24 13:00 | 41.95661 | 21.62588 | 786 ft | 10 kts | 165° |
| 2026-04-24 13:01 | 41.95590 | 21.62613 | 785 ft | 11 kts | 165° |
| 2026-04-24 13:01 | 41.95513 | 21.62640 | 785 ft | 13 kts | 165° |
| 2026-04-24 13:01 | 41.95421 | 21.62673 | 783 ft | 10 kts | 164° |
| 2026-04-24 13:01 | 41.95343 | 21.62702 | 782 ft | 13 kts | 165° |
| 2026-04-24 13:02 | 41.95269 | 21.62729 | 780 ft | 6 kts | 166° |
| 2026-04-24 13:02 | 41.95216 | 21.62747 | 779 ft | 9 kts | 166° |
| 2026-04-24 13:02 | 41.95153 | 21.62731 | 778 ft | 11 kts | 229° |
| 2026-04-24 13:02 | 41.95129 | 21.62634 | 778 ft | 11 kts | 256° |
| 2026-04-24 13:03 | 41.95113 | 21.62547 | 780 ft | 9 kts | 256° |
| 2026-04-24 13:03 | 41.95136 | 21.62501 | 781 ft | 2 kts | 345° |
| 2026-04-24 13:04 | 41.95416 | 21.62401 | 782 ft | 80 kts | 346° |
| 2026-04-24 13:04 | 41.96180 | 21.62137 | 789 ft | 144 kts | 345° |
| 2026-04-24 13:05 | 41.97269 | 21.61773 | 1169 ft | 161 kts | 344° |
| 2026-04-24 13:05 | 41.98302 | 21.61420 | 2001 ft | 148 kts | 345° |
| 2026-04-24 13:05 | 41.99296 | 21.61076 | 2581 ft | 148 kts | 346° |
| 2026-04-24 13:05 | 42.00297 | 21.60752 | 3226 ft | 149 kts | 352° |
| 2026-04-24 13:06 | 42.01364 | 21.61050 | 3607 ft | 176 kts | 27° |
| 2026-04-24 13:06 | 42.02178 | 21.62437 | 3895 ft | 206 kts | 70° |
| 2026-04-24 13:06 | 42.02036 | 21.64398 | 4326 ft | 228 kts | 114° |
| 2026-04-24 13:06 | 42.00892 | 21.65867 | 4839 ft | 237 kts | 156° |
| 2026-04-24 13:07 | 41.99264 | 21.66075 | 5406 ft | 237 kts | 190° |
| 2026-04-24 13:07 | 41.97618 | 21.65481 | 5706 ft | 258 kts | 201° |
| 2026-04-24 13:07 | 41.95880 | 21.64595 | 6231 ft | 272 kts | 203° |
| 2026-04-24 13:07 | 41.94221 | 21.63381 | 6904 ft | 274 kts | 226° |
| 2026-04-24 13:08 | 41.93104 | 21.61316 | 7486 ft | 279 kts | 251° |
| 2026-04-24 13:08 | 41.92522 | 21.58813 | 8146 ft | 284 kts | 256° |
| 2026-04-24 13:08 | 41.91944 | 21.56258 | 8888 ft | 289 kts | 255° |
| 2026-04-24 13:09 | 41.90712 | 21.51035 | 10286 ft | 304 kts | 255° |
| 2026-04-24 13:09 | 41.90038 | 21.48192 | 10501 ft | 327 kts | 255° |
| 2026-04-24 13:09 | 41.89335 | 21.45224 | 10736 ft | 347 kts | 254° |
| 2026-04-24 13:09 | 41.88594 | 21.42100 | 11322 ft | 355 kts | 254° |
| 2026-04-24 13:10 | 41.87839 | 21.38920 | 12027 ft | 359 kts | 254° |
| 2026-04-24 13:10 | 41.87076 | 21.35705 | 12733 ft | 363 kts | 254° |
| 2026-04-24 13:10 | 41.86309 | 21.32462 | 13415 ft | 367 kts | 254° |
| 2026-04-24 13:10 | 41.85535 | 21.29189 | 14072 ft | 371 kts | 254° |
| 2026-04-24 13:11 | 41.84748 | 21.25870 | 14677 ft | 375 kts | 254° |
| 2026-04-24 13:11 | 41.83950 | 21.22514 | 15281 ft | 379 kts | 254° |
| 2026-04-24 13:11 | 41.83143 | 21.19122 | 15868 ft | 384 kts | 254° |
| 2026-04-24 13:11 | 41.82329 | 21.15707 | 16493 ft | 388 kts | 254° |
| 2026-04-24 13:12 | 41.81290 | 21.12334 | 17051 ft | 394 kts | 243° |
| 2026-04-24 13:12 | 41.79776 | 21.09237 | 17633 ft | 400 kts | 232° |
| 2026-04-24 13:12 | 41.77848 | 21.06523 | 18193 ft | 405 kts | 224° |
| 2026-04-24 13:12 | 41.75802 | 21.03907 | 18712 ft | 409 kts | 224° |
| 2026-04-24 13:13 | 41.73763 | 21.01290 | 19204 ft | 413 kts | 224° |
| 2026-04-24 13:13 | 41.71685 | 20.98613 | 19706 ft | 417 kts | 224° |
| 2026-04-24 13:13 | 41.69587 | 20.95902 | 20190 ft | 421 kts | 224° |
| 2026-04-24 13:13 | 41.67474 | 20.93175 | 20723 ft | 425 kts | 224° |
| 2026-04-24 13:14 | 41.65335 | 20.90419 | 21237 ft | 429 kts | 224° |
| 2026-04-24 13:14 | 41.63171 | 20.87636 | 21732 ft | 433 kts | 224° |
| 2026-04-24 13:14 | 41.60991 | 20.84839 | 22210 ft | 437 kts | 224° |
| 2026-04-24 13:14 | 41.58793 | 20.82019 | 22691 ft | 441 kts | 223° |
| 2026-04-24 13:15 | 41.56576 | 20.79177 | 23148 ft | 445 kts | 223° |
| 2026-04-24 13:15 | 41.54324 | 20.76293 | 23582 ft | 448 kts | 223° |
| 2026-04-24 13:15 | 41.52070 | 20.73407 | 23965 ft | 452 kts | 223° |
| 2026-04-24 13:15 | 41.49793 | 20.70491 | 24329 ft | 455 kts | 223° |
| 2026-04-24 13:16 | 41.47504 | 20.67562 | 24704 ft | 458 kts | 223° |
| 2026-04-24 13:16 | 41.45973 | 20.65608 | 24957 ft | 460 kts | 223° |
| 2026-04-24 13:16 | 41.43651 | 20.62647 | 25331 ft | 463 kts | 223° |
| 2026-04-24 13:16 | 41.41319 | 20.59678 | 25721 ft | 466 kts | 222° |
| 2026-04-24 13:17 | 41.38968 | 20.56692 | 26082 ft | 469 kts | 222° |
| 2026-04-24 13:17 | 41.36600 | 20.53694 | 26445 ft | 472 kts | 222° |
| 2026-04-24 13:17 | 41.34244 | 20.50629 | 26794 ft | 475 kts | 226° |
| 2026-04-24 13:17 | 41.32176 | 20.47179 | 27122 ft | 478 kts | 236° |
| 2026-04-24 13:18 | 41.30384 | 20.43442 | 27488 ft | 481 kts | 237° |
| 2026-04-24 13:18 | 41.28591 | 20.39678 | 27856 ft | 483 kts | 237° |
| 2026-04-24 13:18 | 41.26777 | 20.35899 | 28175 ft | 486 kts | 237° |
| 2026-04-24 13:18 | 41.24944 | 20.32098 | 28481 ft | 488 kts | 237° |
| 2026-04-24 13:19 | 41.23104 | 20.28298 | 28812 ft | 490 kts | 237° |
| 2026-04-24 13:19 | 41.21251 | 20.24480 | 29152 ft | 493 kts | 237° |
| 2026-04-24 13:19 | 41.19387 | 20.20642 | 29492 ft | 496 kts | 237° |
| 2026-04-24 13:19 | 41.17511 | 20.16781 | 29811 ft | 498 kts | 237° |
| 2026-04-24 13:20 | 41.15635 | 20.12914 | 30160 ft | 500 kts | 237° |
| 2026-04-24 13:20 | 41.13741 | 20.09013 | 30482 ft | 501 kts | 237° |
| 2026-04-24 13:20 | 41.11854 | 20.05126 | 30846 ft | 501 kts | 237° |
| 2026-04-24 13:20 | 41.09969 | 20.01248 | 31284 ft | 499 kts | 237° |
| 2026-04-24 13:21 | 41.08091 | 19.97390 | 31739 ft | 496 kts | 237° |
| 2026-04-24 13:21 | 41.06221 | 19.93555 | 32165 ft | 495 kts | 237° |
| 2026-04-24 13:21 | 41.04356 | 19.89739 | 32593 ft | 493 kts | 237° |
| 2026-04-24 13:21 | 41.02496 | 19.85941 | 33005 ft | 491 kts | 237° |
| 2026-04-24 13:22 | 41.00642 | 19.82158 | 33439 ft | 489 kts | 237° |
| 2026-04-24 13:22 | 40.98781 | 19.78365 | 33837 ft | 488 kts | 237° |
| 2026-04-24 13:22 | 40.96937 | 19.74609 | 34204 ft | 487 kts | 238° |
| 2026-04-24 13:22 | 40.95101 | 19.70864 | 34533 ft | 485 kts | 238° |
| 2026-04-24 13:23 | 40.93260 | 19.67117 | 34866 ft | 484 kts | 238° |
| 2026-04-24 13:23 | 40.91445 | 19.63437 | 35013 ft | 484 kts | 238° |
| 2026-04-24 13:23 | 40.87789 | 19.56039 | 35041 ft | 478 kts | 238° |
| 2026-04-24 13:24 | 40.84135 | 19.48653 | 35043 ft | 477 kts | 238° |
| 2026-04-24 13:24 | 40.80505 | 19.41325 | 35046 ft | 477 kts | 238° |
| 2026-04-24 13:25 | 40.76883 | 19.34058 | 35049 ft | 476 kts | 238° |
| 2026-04-24 13:25 | 40.73242 | 19.26768 | 35054 ft | 476 kts | 238° |
| 2026-04-24 13:26 | 40.69594 | 19.19464 | 35060 ft | 476 kts | 238° |
| 2026-04-24 13:26 | 40.65945 | 19.12175 | 35070 ft | 477 kts | 238° |
| 2026-04-24 13:27 | 40.62278 | 19.04912 | 35080 ft | 477 kts | 234° |
| 2026-04-24 13:27 | 40.57633 | 18.98717 | 35081 ft | 477 kts | 216° |
| 2026-04-24 13:28 | 40.51932 | 18.94287 | 35082 ft | 476 kts | 208° |
| 2026-04-24 13:28 | 40.46124 | 18.90113 | 35085 ft | 476 kts | 208° |
| 2026-04-24 13:29 | 40.40306 | 18.85945 | 35086 ft | 476 kts | 208° |
| 2026-04-24 13:29 | 40.34493 | 18.81778 | 35088 ft | 476 kts | 208° |
| 2026-04-24 13:30 | 40.28688 | 18.77623 | 35086 ft | 476 kts | 208° |
| 2026-04-24 13:30 | 40.22878 | 18.73472 | 35088 ft | 475 kts | 209° |
| 2026-04-24 13:31 | 40.17075 | 18.69325 | 35089 ft | 475 kts | 209° |
| 2026-04-24 13:31 | 40.11274 | 18.65192 | 35085 ft | 475 kts | 209° |
| 2026-04-24 13:32 | 40.05503 | 18.61102 | 35087 ft | 475 kts | 209° |
| 2026-04-24 13:32 | 39.99704 | 18.57003 | 35086 ft | 474 kts | 209° |
| 2026-04-24 13:33 | 39.93905 | 18.52893 | 35083 ft | 474 kts | 209° |
| 2026-04-24 13:33 | 39.88100 | 18.48791 | 35087 ft | 474 kts | 209° |
| 2026-04-24 13:34 | 39.82298 | 18.44699 | 35083 ft | 474 kts | 209° |
| 2026-04-24 13:34 | 39.76493 | 18.40617 | 35085 ft | 474 kts | 209° |
| 2026-04-24 13:35 | 39.70684 | 18.36538 | 35086 ft | 474 kts | 209° |
| 2026-04-24 13:35 | 39.64883 | 18.32479 | 35081 ft | 474 kts | 209° |
| 2026-04-24 13:36 | 39.59073 | 18.28421 | 35084 ft | 474 kts | 209° |
| 2026-04-24 13:36 | 39.53256 | 18.24357 | 35086 ft | 474 kts | 209° |
| 2026-04-24 13:37 | 39.47464 | 18.20318 | 35085 ft | 474 kts | 209° |
| 2026-04-24 13:37 | 39.41649 | 18.16275 | 35091 ft | 474 kts | 209° |
| 2026-04-24 13:38 | 39.35844 | 18.12246 | 35090 ft | 474 kts | 209° |
| 2026-04-24 13:38 | 39.30026 | 18.08228 | 35089 ft | 474 kts | 209° |
| 2026-04-24 13:39 | 39.24223 | 18.04219 | 35092 ft | 474 kts | 209° |
| 2026-04-24 13:39 | 39.18407 | 18.00206 | 35091 ft | 474 kts | 209° |
| 2026-04-24 13:40 | 39.12637 | 17.96227 | 35095 ft | 474 kts | 209° |
| 2026-04-24 13:40 | 39.06827 | 17.92223 | 35093 ft | 474 kts | 209° |
| 2026-04-24 13:41 | 39.01016 | 17.88238 | 35097 ft | 474 kts | 209° |
| 2026-04-24 13:41 | 38.95197 | 17.84264 | 35095 ft | 474 kts | 209° |
| 2026-04-24 13:42 | 38.89377 | 17.80289 | 35097 ft | 474 kts | 209° |
| 2026-04-24 13:42 | 38.83549 | 17.76316 | 35099 ft | 474 kts | 209° |
| 2026-04-24 13:43 | 38.77723 | 17.72348 | 35100 ft | 474 kts | 209° |
| 2026-04-24 13:43 | 38.71905 | 17.68379 | 35101 ft | 474 kts | 209° |
| 2026-04-24 13:44 | 38.66077 | 17.64425 | 35103 ft | 474 kts | 209° |
| 2026-04-24 13:44 | 38.60240 | 17.60481 | 35103 ft | 474 kts | 209° |
| 2026-04-24 13:45 | 38.54393 | 17.56538 | 35107 ft | 474 kts | 209° |
| 2026-04-24 13:45 | 38.48607 | 17.52637 | 35102 ft | 474 kts | 209° |
| 2026-04-24 13:46 | 38.42775 | 17.48710 | 35106 ft | 474 kts | 209° |
| 2026-04-24 13:46 | 38.36906 | 17.44762 | 35115 ft | 474 kts | 209° |
| 2026-04-24 13:47 | 38.31101 | 17.40863 | 35105 ft | 474 kts | 209° |
| 2026-04-24 13:47 | 38.25262 | 17.36950 | 35117 ft | 474 kts | 209° |
| 2026-04-24 13:48 | 38.19411 | 17.33047 | 35104 ft | 474 kts | 209° |
| 2026-04-24 13:48 | 38.13570 | 17.29153 | 35106 ft | 474 kts | 209° |
| 2026-04-24 13:49 | 38.07724 | 17.25256 | 35116 ft | 474 kts | 209° |
| 2026-04-24 13:49 | 38.01879 | 17.21370 | 35109 ft | 474 kts | 209° |
| 2026-04-24 13:50 | 37.96036 | 17.17485 | 35106 ft | 474 kts | 209° |
| 2026-04-24 13:50 | 37.90195 | 17.13615 | 35113 ft | 474 kts | 208° |
| 2026-04-24 13:51 | 37.84354 | 17.09761 | 35115 ft | 473 kts | 209° |
| 2026-04-24 13:51 | 37.78553 | 17.05936 | 35114 ft | 473 kts | 209° |
| 2026-04-24 13:52 | 37.72724 | 17.02084 | 35121 ft | 473 kts | 209° |
| 2026-04-24 13:52 | 37.66903 | 16.98248 | 35121 ft | 473 kts | 209° |
| 2026-04-24 13:53 | 37.61026 | 16.94397 | 35111 ft | 472 kts | 209° |
| 2026-04-24 13:53 | 37.55188 | 16.90576 | 35120 ft | 472 kts | 209° |
| 2026-04-24 13:54 | 37.49362 | 16.86771 | 35123 ft | 472 kts | 209° |
| 2026-04-24 13:54 | 37.43537 | 16.82958 | 35113 ft | 472 kts | 209° |
| 2026-04-24 13:55 | 37.37743 | 16.79178 | 35118 ft | 471 kts | 209° |
| 2026-04-24 13:55 | 37.31925 | 16.75395 | 35115 ft | 471 kts | 209° |
| 2026-04-24 13:56 | 37.26099 | 16.71613 | 35121 ft | 471 kts | 209° |
| 2026-04-24 13:56 | 37.20351 | 16.67699 | 35114 ft | 468 kts | 217° |
| 2026-04-24 13:57 | 37.15593 | 16.62278 | 35112 ft | 460 kts | 234° |
| 2026-04-24 13:57 | 37.11579 | 16.56014 | 35115 ft | 460 kts | 234° |
| 2026-04-24 13:58 | 37.07561 | 16.49766 | 35115 ft | 460 kts | 234° |
| 2026-04-24 13:58 | 37.04222 | 16.44595 | 35115 ft | 460 kts | 234° |
| 2026-04-24 13:59 | 37.02200 | 16.41475 | 34949 ft | 460 kts | 234° |
| 2026-04-24 13:59 | 37.00194 | 16.38381 | 34711 ft | 458 kts | 234° |
| 2026-04-24 13:59 | 36.97530 | 16.34273 | 34392 ft | 458 kts | 234° |
| 2026-04-24 13:59 | 36.96177 | 16.32189 | 34236 ft | 458 kts | 234° |
| 2026-04-24 14:00 | 36.94173 | 16.29100 | 33984 ft | 458 kts | 235° |
| 2026-04-24 14:00 | 36.92164 | 16.26000 | 33715 ft | 458 kts | 235° |
| 2026-04-24 14:00 | 36.90167 | 16.22912 | 33441 ft | 457 kts | 235° |
| 2026-04-24 14:00 | 36.88169 | 16.19830 | 33162 ft | 455 kts | 235° |
| 2026-04-24 14:01 | 36.86177 | 16.16766 | 32895 ft | 453 kts | 234° |
| 2026-04-24 14:01 | 36.84189 | 16.13714 | 32626 ft | 452 kts | 234° |
| 2026-04-24 14:01 | 36.82215 | 16.10688 | 32362 ft | 450 kts | 234° |
| 2026-04-24 14:01 | 36.80237 | 16.07661 | 32106 ft | 448 kts | 234° |
| 2026-04-24 14:02 | 36.78275 | 16.04660 | 31847 ft | 445 kts | 234° |
| 2026-04-24 14:02 | 36.76319 | 16.01671 | 31358 ft | 442 kts | 234° |
| 2026-04-24 14:02 | 36.74382 | 15.98711 | 30838 ft | 440 kts | 234° |
| 2026-04-24 14:02 | 36.72452 | 15.95769 | 30333 ft | 437 kts | 234° |
| 2026-04-24 14:03 | 36.70537 | 15.92847 | 29775 ft | 435 kts | 234° |
| 2026-04-24 14:03 | 36.68648 | 15.89968 | 29298 ft | 431 kts | 234° |
| 2026-04-24 14:03 | 36.66760 | 15.87096 | 28779 ft | 427 kts | 234° |
| 2026-04-24 14:03 | 36.64865 | 15.84213 | 28277 ft | 423 kts | 234° |
| 2026-04-24 14:04 | 36.63012 | 15.81392 | 27803 ft | 419 kts | 234° |
| 2026-04-24 14:04 | 36.61197 | 15.78631 | 27334 ft | 416 kts | 234° |
| 2026-04-24 14:04 | 36.59377 | 15.75867 | 26866 ft | 413 kts | 234° |
| 2026-04-24 14:04 | 36.57554 | 15.73106 | 26415 ft | 410 kts | 234° |
| 2026-04-24 14:05 | 36.55742 | 15.70367 | 25976 ft | 407 kts | 234° |
| 2026-04-24 14:05 | 36.53943 | 15.67650 | 25538 ft | 405 kts | 234° |
| 2026-04-24 14:05 | 36.52156 | 15.64952 | 25125 ft | 403 kts | 234° |
| 2026-04-24 14:05 | 36.50481 | 15.62189 | 24716 ft | 397 kts | 242° |
| 2026-04-24 14:06 | 36.49216 | 15.59187 | 24312 ft | 389 kts | 252° |
| 2026-04-24 14:06 | 36.48248 | 15.56066 | 23931 ft | 385 kts | 253° |
| 2026-04-24 14:06 | 36.47279 | 15.52962 | 23500 ft | 383 kts | 253° |
| 2026-04-24 14:06 | 36.46321 | 15.49931 | 23078 ft | 379 kts | 253° |
| 2026-04-24 14:07 | 36.45361 | 15.46909 | 22674 ft | 375 kts | 252° |
| 2026-04-24 14:07 | 36.44405 | 15.43902 | 22276 ft | 371 kts | 253° |
| 2026-04-24 14:07 | 36.43468 | 15.40949 | 21869 ft | 367 kts | 253° |
| 2026-04-24 14:07 | 36.42537 | 15.38011 | 21457 ft | 363 kts | 253° |
| 2026-04-24 14:08 | 36.41619 | 15.35109 | 21053 ft | 359 kts | 253° |
| 2026-04-24 14:08 | 36.40707 | 15.32228 | 20653 ft | 356 kts | 253° |
| 2026-04-24 14:08 | 36.39805 | 15.29379 | 20231 ft | 353 kts | 252° |
| 2026-04-24 14:08 | 36.38907 | 15.26547 | 19816 ft | 351 kts | 252° |
| 2026-04-24 14:09 | 36.38019 | 15.23751 | 19413 ft | 348 kts | 252° |
| 2026-04-24 14:09 | 36.37132 | 15.20968 | 19011 ft | 346 kts | 252° |
| 2026-04-24 14:09 | 36.36250 | 15.18203 | 18605 ft | 343 kts | 252° |
| 2026-04-24 14:09 | 36.35376 | 15.15461 | 18158 ft | 341 kts | 252° |
| 2026-04-24 14:10 | 36.34508 | 15.12736 | 17756 ft | 338 kts | 252° |
| 2026-04-24 14:10 | 36.33646 | 15.10033 | 17355 ft | 335 kts | 252° |
| 2026-04-24 14:10 | 36.32793 | 15.07364 | 16951 ft | 332 kts | 252° |
| 2026-04-24 14:10 | 36.31942 | 15.04708 | 16565 ft | 329 kts | 252° |
| 2026-04-24 14:11 | 36.31099 | 15.02079 | 16166 ft | 327 kts | 251° |
| 2026-04-24 14:11 | 36.30272 | 14.99497 | 15789 ft | 325 kts | 251° |
| 2026-04-24 14:11 | 36.28599 | 14.94283 | 15005 ft | 322 kts | 251° |
| 2026-04-24 14:12 | 36.27770 | 14.91703 | 14610 ft | 321 kts | 251° |
| 2026-04-24 14:12 | 36.26943 | 14.89131 | 14223 ft | 321 kts | 251° |
| 2026-04-24 14:12 | 36.26117 | 14.86560 | 13837 ft | 320 kts | 250° |
| 2026-04-24 14:12 | 36.25293 | 14.84004 | 13425 ft | 319 kts | 250° |
| 2026-04-24 14:13 | 36.24469 | 14.81455 | 13034 ft | 317 kts | 250° |
| 2026-04-24 14:13 | 36.23664 | 14.78959 | 12661 ft | 315 kts | 250° |
| 2026-04-24 14:13 | 36.22854 | 14.76448 | 12282 ft | 313 kts | 250° |
| 2026-04-24 14:13 | 36.22047 | 14.73952 | 11905 ft | 312 kts | 250° |
| 2026-04-24 14:14 | 36.21242 | 14.71466 | 11531 ft | 310 kts | 250° |
| 2026-04-24 14:14 | 36.20443 | 14.68996 | 11232 ft | 306 kts | 250° |
| 2026-04-24 14:14 | 36.18855 | 14.64101 | 10468 ft | 304 kts | 250° |
| 2026-04-24 14:15 | 36.18074 | 14.61698 | 10310 ft | 298 kts | 250° |
| 2026-04-24 14:15 | 36.17300 | 14.59320 | 10189 ft | 298 kts | 250° |
| 2026-04-24 14:15 | 36.16525 | 14.56940 | 9970 ft | 299 kts | 250° |
| 2026-04-24 14:15 | 36.15742 | 14.54525 | 9470 ft | 301 kts | 250° |
| 2026-04-24 14:16 | 36.14974 | 14.52166 | 9243 ft | 294 kts | 250° |
| 2026-04-24 14:16 | 36.14208 | 14.49818 | 8904 ft | 291 kts | 250° |
| 2026-04-24 14:16 | 36.13449 | 14.47501 | 8530 ft | 290 kts | 250° |
| 2026-04-24 14:17 | 36.11957 | 14.42948 | 7885 ft | 273 kts | 250° |
| 2026-04-24 14:17 | 36.11227 | 14.40806 | 7418 ft | 268 kts | 243° |
| 2026-04-24 14:17 | 36.08879 | 14.37293 | 6388 ft | 265 kts | 225° |
| 2026-04-24 14:18 | 36.07562 | 14.35697 | 5867 ft | 262 kts | 225° |
| 2026-04-24 14:18 | 36.06269 | 14.34124 | 5300 ft | 260 kts | 225° |
| 2026-04-24 14:18 | 36.04997 | 14.32574 | 4815 ft | 251 kts | 225° |
| 2026-04-24 14:18 | 36.03721 | 14.31187 | 4559 ft | 242 kts | 210° |
| 2026-04-24 14:19 | 36.02720 | 14.30659 | 4678 ft | 230 kts | 191° |
| 2026-04-24 14:19 | 36.00769 | 14.30768 | 5420 ft | 221 kts | 161° |
| 2026-04-24 14:19 | 35.99393 | 14.31541 | 4763 ft | 223 kts | 147° |
| 2026-04-24 14:19 | 35.98082 | 14.32625 | 4131 ft | 221 kts | 141° |
| 2026-04-24 14:20 | 35.96926 | 14.33857 | 3561 ft | 223 kts | 133° |
| 2026-04-24 14:20 | 35.95835 | 14.35215 | 3150 ft | 220 kts | 133° |
| 2026-04-24 14:20 | 35.94773 | 14.36538 | 2823 ft | 215 kts | 134° |
| 2026-04-24 14:20 | 35.93730 | 14.37833 | 2562 ft | 208 kts | 133° |
| 2026-04-24 14:21 | 35.92748 | 14.39053 | 2275 ft | 193 kts | 133° |
| 2026-04-24 14:21 | 35.91838 | 14.40183 | 2016 ft | 178 kts | 134° |
| 2026-04-24 14:21 | 35.90996 | 14.41231 | 1813 ft | 164 kts | 134° |
| 2026-04-24 14:21 | 35.90224 | 14.42190 | 1571 ft | 154 kts | 133° |
| 2026-04-24 14:22 | 35.89486 | 14.43107 | 1372 ft | 152 kts | 133° |
| 2026-04-24 14:22 | 35.88752 | 14.44019 | 1157 ft | 149 kts | 133° |
| 2026-04-24 14:22 | 35.87282 | 14.45842 | 785 ft | 150 kts | 133° |
| 2026-04-24 14:23 | 35.86547 | 14.46744 | 566 ft | 149 kts | 132° |
| 2026-04-24 14:23 | 35.85816 | 14.47658 | 365 ft | 149 kts | 133° |
| 2026-04-24 14:23 | 35.85132 | 14.48514 | 272 ft | 121 kts | 135° |
| 2026-04-24 14:23 | 35.84659 | 14.49099 | 259 ft | 65 kts | 134° |
| 2026-04-24 14:24 | 35.84471 | 14.49376 | 259 ft | 28 kts | 114° |
| 2026-04-24 14:24 | 35.84451 | 14.49453 | 259 ft | 13 kts | 106° |